Tuesday, January 22, 2019, 3:58 PM EST
Back to Local

KCEF, Chicopee Falls / Westover Air Force Base

Location: Chicopee, MA, United States Lat: 42.2
Local Time: 3:58 PM EST (20:58 GMT) Lon: -72.533
Time Zone: US/Eastern Elev: 246 ft

Show me the last for .
Show Decoded

2019-01-22 14:56 METAR KCEF 221956Z 26003KT 10SM FEW200 BKN250 M04/M19 A3054 RMK AO2A SLP353
                 T10431193 =
2019-01-22 13:56 METAR KCEF 221856Z 00000KT 10SM FEW200 BKN250 M04/M22 A3053 RMK AO2A SLP350
                 T10451221 =
2019-01-22 12:56 METAR KCEF 221756Z COR 00000KT 10SM FEW250 M06/M20 A3055 RMK AO2A SLP357 4/005
                 T10611202 11061 21204 58004 COR 1757 =
2019-01-22 11:56 METAR KCEF 221656Z 21005KT 10SM FEW250 M08/M21 A3056 RMK AO2A SLP361 T10851209 =
2019-01-22 10:56 METAR KCEF 221556Z 22005KT 10SM FEW250 M11/M22 A3057 RMK AO2A SLP364 T11091225 =
2019-01-22 09:56 METAR KCEF 221456Z 00000KT 10SM CLR M13/M23 A3056 RMK AO2A SLP361 T11301235
                 52028 =
2019-01-22 08:56 METAR KCEF 221356Z 26008KT 10SM CLR M15/M24 A3055 RMK AO2A SLP358 T11481244 =
2019-01-22 07:56 METAR KCEF 221256Z 25007KT 10SM CLR M17/M25 A3051 RMK AO2A SLP345 T11671250 =
2019-01-22 06:56 METAR KCEF 221156Z 18003KT 10SM CLR M19/M26 A3048 RMK AO2A SLP335 4/006
                 T11861257 11152 21188 52043 =
2019-01-22 05:56 METAR KCEF 221056Z AUTO 23003KT 10SM CLR M19/M25 A3043 RMK AO2 SLP318 T11861251
                 =
2019-01-22 04:56 METAR KCEF 220956Z AUTO 29003KT 10SM CLR M16/M25 A3038 RMK AO2 SLP300 T11641251
                 =
2019-01-22 03:56 METAR KCEF 220856Z AUTO 34005KT 10SM CLR M16/M25 A3035 RMK AO2 SLP290 T11591252
                 52028 =
2019-01-22 02:56 METAR KCEF 220756Z AUTO 35004KT 10SM CLR M16/M25 A3033 RMK AO2 SLP284 T11621254
                 =
2019-01-22 01:56 METAR KCEF 220656Z AUTO 00000KT 10SM CLR M16/M26 A3030 RMK AO2 SLP273 T11611259
                 =
2019-01-22 00:56 METAR KCEF 220556Z AUTO 35005KT 10SM CLR M16/M26 A3027 RMK AO2 SLP263 T11611264
                 11160 21174 52036 =
2019-01-21 23:56 METAR KCEF 220456Z AUTO 32009KT 10SM CLR M17/M26 A3024 RMK AO2 SLP253 T11721264
                 411551205 =
2019-01-21 22:56 METAR KCEF 220356Z 32012KT 10SM FEW150 M16/M26 A3020 RMK AO2A SLP240 T11651262 =
2019-01-21 21:56 METAR KCEF 220256Z 33010KT 10SM FEW150 M16/M27 A3016 RMK AO2A SLP226 T11621270
                 52031 =
2019-01-21 20:56 METAR KCEF 220156Z 33009KT 10SM FEW150 FEW200 M16/M26 A3013 RMK AO2A SLP216
                 T11621265 =
2019-01-21 19:56 METAR KCEF 220056Z 33009G18KT 10SM FEW150 SCT200 M16/M26 A3012 RMK AO2A SLP212
                 T11621259 =
2019-01-21 18:56 METAR KCEF 212356Z 33010G19KT 10SM FEW060 SCT110 M16/M25 A3007 RMK AO2A SLP195
                 4/006 T11631248 11160 21181 52039 =
2019-01-21 17:56 METAR KCEF 212256Z 33017G23KT 10SM FEW050 SCT100 SCT160 M16/M24 A3002 RMK AO2A
                 PK WND 34026/07 SLP178 T11611242 =
2019-01-21 16:56 METAR KCEF 212156Z 32013G22KT 10SM SCT050 BKN090 M16/M24 A2998 RMK AO2A PK WND
                 32027/01 SLP165 T11621241 =

Support USWX by starting your Amazon purchase here.